sensor_id;sensor_type;location;lat;lon;timestamp;P1;durP1;ratioP1;P2;durP2;ratioP2
7487;SDS011;3785;52.260;4.728;2022-12-18T00:02:31;37.23;;;12.33;;
7487;SDS011;3785;52.260;4.728;2022-12-18T00:05:52;36.30;;;13.17;;
7487;SDS011;3785;52.260;4.728;2022-12-18T00:09:13;28.87;;;11.67;;
7487;SDS011;3785;52.260;4.728;2022-12-18T00:12:33;35.87;;;11.63;;
7487;SDS011;3785;52.260;4.728;2022-12-18T00:15:54;37.77;;;11.67;;
7487;SDS011;3785;52.260;4.728;2022-12-18T00:19:14;34.63;;;13.07;;
7487;SDS011;3785;52.260;4.728;2022-12-18T00:22:35;40.07;;;12.17;;
7487;SDS011;3785;52.260;4.728;2022-12-18T00:26:03;35.50;;;12.00;;
7487;SDS011;3785;52.260;4.728;2022-12-18T00:29:25;32.43;;;10.93;;
7487;SDS011;3785;52.260;4.728;2022-12-18T00:32:45;28.20;;;10.90;;
7487;SDS011;3785;52.260;4.728;2022-12-18T00:36:07;30.60;;;12.53;;
7487;SDS011;3785;52.260;4.728;2022-12-18T00:39:30;28.47;;;12.40;;
7487;SDS011;3785;52.260;4.728;2022-12-18T00:42:51;25.67;;;10.60;;
7487;SDS011;3785;52.260;4.728;2022-12-18T00:46:17;28.10;;;11.90;;
7487;SDS011;3785;52.260;4.728;2022-12-18T00:49:38;26.93;;;10.20;;
7487;SDS011;3785;52.260;4.728;2022-12-18T00:52:58;31.67;;;9.50;;
7487;SDS011;3785;52.260;4.728;2022-12-18T00:56:22;23.37;;;9.03;;
7487;SDS011;3785;52.260;4.728;2022-12-18T00:59:43;35.07;;;11.30;;
7487;SDS011;3785;52.260;4.728;2022-12-18T01:03:04;25.53;;;11.20;;
7487;SDS011;3785;52.260;4.728;2022-12-18T01:06:25;36.07;;;11.80;;
7487;SDS011;3785;52.260;4.728;2022-12-18T01:09:45;28.83;;;10.10;;
7487;SDS011;3785;52.260;4.728;2022-12-18T01:13:06;35.23;;;12.33;;
7487;SDS011;3785;52.260;4.728;2022-12-18T01:16:27;37.70;;;12.33;;
7487;SDS011;3785;52.260;4.728;2022-12-18T01:19:47;31.33;;;11.63;;
7487;SDS011;3785;52.260;4.728;2022-12-18T01:23:08;25.60;;;11.03;;
7487;SDS011;3785;52.260;4.728;2022-12-18T01:26:28;21.57;;;9.57;;
7487;SDS011;3785;52.260;4.728;2022-12-18T01:29:49;26.53;;;11.03;;
7487;SDS011;3785;52.260;4.728;2022-12-18T01:33:10;35.17;;;12.80;;
7487;SDS011;3785;52.260;4.728;2022-12-18T01:36:31;31.27;;;12.47;;
7487;SDS011;3785;52.260;4.728;2022-12-18T01:39:53;30.03;;;12.03;;
7487;SDS011;3785;52.260;4.728;2022-12-18T01:43:17;34.83;;;12.13;;
7487;SDS011;3785;52.260;4.728;2022-12-18T01:46:37;30.37;;;12.17;;
7487;SDS011;3785;52.260;4.728;2022-12-18T01:49:58;26.83;;;11.93;;
7487;SDS011;3785;52.260;4.728;2022-12-18T01:53:21;23.17;;;9.73;;
7487;SDS011;3785;52.260;4.728;2022-12-18T01:56:42;24.07;;;9.93;;
7487;SDS011;3785;52.260;4.728;2022-12-18T02:00:05;30.17;;;11.73;;
7487;SDS011;3785;52.260;4.728;2022-12-18T02:03:28;27.07;;;10.97;;
7487;SDS011;3785;52.260;4.728;2022-12-18T02:06:59;26.30;;;10.40;;
7487;SDS011;3785;52.260;4.728;2022-12-18T02:10:30;22.73;;;11.37;;
7487;SDS011;3785;52.260;4.728;2022-12-18T02:18:20;25.93;;;9.93;;
7487;SDS011;3785;52.260;4.728;2022-12-18T02:21:49;26.33;;;10.37;;
7487;SDS011;3785;52.260;4.728;2022-12-18T02:25:40;24.43;;;10.30;;
7487;SDS011;3785;52.260;4.728;2022-12-18T02:29:23;24.50;;;10.43;;
7487;SDS011;3785;52.260;4.728;2022-12-18T02:32:50;26.97;;;9.97;;
7487;SDS011;3785;52.260;4.728;2022-12-18T02:36:12;27.13;;;10.33;;
7487;SDS011;3785;52.260;4.728;2022-12-18T02:39:35;25.40;;;8.73;;
7487;SDS011;3785;52.260;4.728;2022-12-18T02:43:07;22.93;;;9.23;;
7487;SDS011;3785;52.260;4.728;2022-12-18T02:46:36;21.53;;;9.90;;
7487;SDS011;3785;52.260;4.728;2022-12-18T02:53:45;22.87;;;10.03;;
7487;SDS011;3785;52.260;4.728;2022-12-18T03:00:42;20.10;;;8.53;;
7487;SDS011;3785;52.260;4.728;2022-12-18T03:04:33;20.23;;;8.37;;
7487;SDS011;3785;52.260;4.728;2022-12-18T03:08:08;20.50;;;9.93;;
7487;SDS011;3785;52.260;4.728;2022-12-18T03:11:33;18.23;;;8.60;;
7487;SDS011;3785;52.260;4.728;2022-12-18T03:15:17;19.57;;;8.53;;
7487;SDS011;3785;52.260;4.728;2022-12-18T03:22:03;17.67;;;8.50;;
7487;SDS011;3785;52.260;4.728;2022-12-18T03:25:26;26.90;;;9.90;;
7487;SDS011;3785;52.260;4.728;2022-12-18T03:28:48;24.00;;;9.50;;
7487;SDS011;3785;52.260;4.728;2022-12-18T03:32:16;23.10;;;9.17;;
7487;SDS011;3785;52.260;4.728;2022-12-18T03:35:43;23.00;;;9.27;;
7487;SDS011;3785;52.260;4.728;2022-12-18T03:39:04;21.60;;;7.73;;
7487;SDS011;3785;52.260;4.728;2022-12-18T03:46:05;22.70;;;9.33;;
7487;SDS011;3785;52.260;4.728;2022-12-18T03:49:50;17.57;;;7.40;;
7487;SDS011;3785;52.260;4.728;2022-12-18T03:56:51;22.17;;;7.57;;
7487;SDS011;3785;52.260;4.728;2022-12-18T04:00:17;23.50;;;9.07;;
7487;SDS011;3785;52.260;4.728;2022-12-18T04:03:38;18.40;;;8.03;;
7487;SDS011;3785;52.260;4.728;2022-12-18T04:06:59;23.37;;;9.83;;
7487;SDS011;3785;52.260;4.728;2022-12-18T04:10:20;22.43;;;9.27;;
7487;SDS011;3785;52.260;4.728;2022-12-18T04:13:41;22.80;;;9.13;;
7487;SDS011;3785;52.260;4.728;2022-12-18T04:17:02;21.30;;;8.47;;
7487;SDS011;3785;52.260;4.728;2022-12-18T04:20:23;23.50;;;8.93;;
7487;SDS011;3785;52.260;4.728;2022-12-18T04:23:44;24.47;;;9.40;;
7487;SDS011;3785;52.260;4.728;2022-12-18T04:27:04;18.70;;;8.83;;
7487;SDS011;3785;52.260;4.728;2022-12-18T04:30:25;26.67;;;9.67;;
7487;SDS011;3785;52.260;4.728;2022-12-18T04:33:46;21.53;;;9.23;;
7487;SDS011;3785;52.260;4.728;2022-12-18T04:37:06;19.60;;;9.47;;
7487;SDS011;3785;52.260;4.728;2022-12-18T04:40:27;27.33;;;9.83;;
7487;SDS011;3785;52.260;4.728;2022-12-18T04:43:47;23.37;;;9.43;;
7487;SDS011;3785;52.260;4.728;2022-12-18T04:47:08;26.97;;;8.23;;
7487;SDS011;3785;52.260;4.728;2022-12-18T04:50:29;24.67;;;9.57;;
7487;SDS011;3785;52.260;4.728;2022-12-18T04:53:49;26.60;;;10.33;;
7487;SDS011;3785;52.260;4.728;2022-12-18T04:57:10;22.83;;;8.93;;
7487;SDS011;3785;52.260;4.728;2022-12-18T05:00:31;25.73;;;10.53;;
7487;SDS011;3785;52.260;4.728;2022-12-18T05:03:51;21.57;;;8.97;;
7487;SDS011;3785;52.260;4.728;2022-12-18T05:07:12;19.23;;;9.70;;
7487;SDS011;3785;52.260;4.728;2022-12-18T05:10:32;22.10;;;8.47;;
7487;SDS011;3785;52.260;4.728;2022-12-18T05:13:56;17.77;;;8.43;;
7487;SDS011;3785;52.260;4.728;2022-12-18T05:17:16;21.47;;;9.77;;
7487;SDS011;3785;52.260;4.728;2022-12-18T05:20:37;19.73;;;9.00;;
7487;SDS011;3785;52.260;4.728;2022-12-18T05:23:57;23.30;;;8.43;;
7487;SDS011;3785;52.260;4.728;2022-12-18T05:27:18;20.37;;;8.50;;
7487;SDS011;3785;52.260;4.728;2022-12-18T05:30:47;21.63;;;8.80;;
7487;SDS011;3785;52.260;4.728;2022-12-18T05:34:11;20.90;;;9.23;;
7487;SDS011;3785;52.260;4.728;2022-12-18T05:37:32;20.50;;;8.67;;
7487;SDS011;3785;52.260;4.728;2022-12-18T05:40:53;20.90;;;8.93;;
7487;SDS011;3785;52.260;4.728;2022-12-18T05:44:13;15.43;;;6.97;;
7487;SDS011;3785;52.260;4.728;2022-12-18T05:47:34;19.57;;;7.77;;
7487;SDS011;3785;52.260;4.728;2022-12-18T05:50:54;19.20;;;8.63;;
7487;SDS011;3785;52.260;4.728;2022-12-18T05:54:15;25.33;;;9.33;;
7487;SDS011;3785;52.260;4.728;2022-12-18T05:57:36;18.50;;;8.47;;
7487;SDS011;3785;52.260;4.728;2022-12-18T06:00:56;27.43;;;7.77;;
7487;SDS011;3785;52.260;4.728;2022-12-18T06:04:17;19.27;;;8.30;;
7487;SDS011;3785;52.260;4.728;2022-12-18T06:07:38;19.07;;;10.17;;
7487;SDS011;3785;52.260;4.728;2022-12-18T06:10:58;17.43;;;8.27;;
7487;SDS011;3785;52.260;4.728;2022-12-18T06:14:19;12.77;;;6.90;;
7487;SDS011;3785;52.260;4.728;2022-12-18T06:17:39;16.63;;;7.33;;
7487;SDS011;3785;52.260;4.728;2022-12-18T06:21:00;19.37;;;8.97;;
7487;SDS011;3785;52.260;4.728;2022-12-18T06:24:20;23.20;;;10.10;;
7487;SDS011;3785;52.260;4.728;2022-12-18T06:27:41;22.33;;;8.83;;
7487;SDS011;3785;52.260;4.728;2022-12-18T06:31:02;18.47;;;8.50;;
7487;SDS011;3785;52.260;4.728;2022-12-18T06:34:23;15.93;;;8.37;;
7487;SDS011;3785;52.260;4.728;2022-12-18T06:37:44;18.83;;;8.57;;
7487;SDS011;3785;52.260;4.728;2022-12-18T06:41:08;20.20;;;8.37;;
7487;SDS011;3785;52.260;4.728;2022-12-18T06:44:40;19.37;;;9.03;;
7487;SDS011;3785;52.260;4.728;2022-12-18T06:48:00;15.83;;;7.63;;
7487;SDS011;3785;52.260;4.728;2022-12-18T06:51:22;16.77;;;8.70;;
7487;SDS011;3785;52.260;4.728;2022-12-18T06:54:45;14.07;;;7.80;;
7487;SDS011;3785;52.260;4.728;2022-12-18T06:58:05;18.80;;;8.67;;
7487;SDS011;3785;52.260;4.728;2022-12-18T07:01:26;19.37;;;8.73;;
7487;SDS011;3785;52.260;4.728;2022-12-18T07:04:50;21.33;;;7.47;;
7487;SDS011;3785;52.260;4.728;2022-12-18T07:08:10;19.50;;;8.67;;
7487;SDS011;3785;52.260;4.728;2022-12-18T07:11:32;16.83;;;7.97;;
7487;SDS011;3785;52.260;4.728;2022-12-18T07:14:52;20.57;;;8.33;;
7487;SDS011;3785;52.260;4.728;2022-12-18T07:18:13;17.10;;;8.30;;
7487;SDS011;3785;52.260;4.728;2022-12-18T07:21:34;15.97;;;7.83;;
7487;SDS011;3785;52.260;4.728;2022-12-18T07:24:54;16.07;;;8.43;;
7487;SDS011;3785;52.260;4.728;2022-12-18T07:28:15;17.50;;;8.00;;
7487;SDS011;3785;52.260;4.728;2022-12-18T07:31:35;14.77;;;6.37;;
7487;SDS011;3785;52.260;4.728;2022-12-18T07:34:56;14.63;;;6.63;;
7487;SDS011;3785;52.260;4.728;2022-12-18T07:38:16;13.93;;;5.93;;
7487;SDS011;3785;52.260;4.728;2022-12-18T07:41:37;15.03;;;8.00;;
7487;SDS011;3785;52.260;4.728;2022-12-18T07:44:59;17.97;;;6.37;;
7487;SDS011;3785;52.260;4.728;2022-12-18T07:48:20;16.57;;;6.93;;
7487;SDS011;3785;52.260;4.728;2022-12-18T07:51:40;18.27;;;7.17;;
7487;SDS011;3785;52.260;4.728;2022-12-18T07:55:01;14.37;;;6.00;;
7487;SDS011;3785;52.260;4.728;2022-12-18T07:58:22;14.73;;;6.37;;
7487;SDS011;3785;52.260;4.728;2022-12-18T08:01:43;11.60;;;6.30;;
7487;SDS011;3785;52.260;4.728;2022-12-18T08:05:05;8.37;;;5.00;;
7487;SDS011;3785;52.260;4.728;2022-12-18T08:08:26;17.13;;;7.23;;
7487;SDS011;3785;52.260;4.728;2022-12-18T08:11:46;12.00;;;6.73;;
7487;SDS011;3785;52.260;4.728;2022-12-18T08:15:07;10.03;;;5.50;;
7487;SDS011;3785;52.260;4.728;2022-12-18T08:18:28;10.50;;;5.60;;
7487;SDS011;3785;52.260;4.728;2022-12-18T08:21:49;8.87;;;5.87;;
7487;SDS011;3785;52.260;4.728;2022-12-18T08:25:09;14.87;;;6.93;;
7487;SDS011;3785;52.260;4.728;2022-12-18T08:28:30;10.47;;;5.87;;
7487;SDS011;3785;52.260;4.728;2022-12-18T08:31:50;10.30;;;5.10;;
7487;SDS011;3785;52.260;4.728;2022-12-18T08:35:11;16.53;;;6.23;;
7487;SDS011;3785;52.260;4.728;2022-12-18T08:38:32;9.93;;;5.33;;
7487;SDS011;3785;52.260;4.728;2022-12-18T08:41:53;10.97;;;6.17;;
7487;SDS011;3785;52.260;4.728;2022-12-18T08:45:32;10.73;;;6.23;;
7487;SDS011;3785;52.260;4.728;2022-12-18T08:48:54;11.93;;;7.00;;
7487;SDS011;3785;52.260;4.728;2022-12-18T08:52:15;10.97;;;5.80;;
7487;SDS011;3785;52.260;4.728;2022-12-18T08:55:36;13.07;;;5.47;;
7487;SDS011;3785;52.260;4.728;2022-12-18T08:58:57;13.23;;;6.20;;
7487;SDS011;3785;52.260;4.728;2022-12-18T09:02:17;12.10;;;5.97;;
7487;SDS011;3785;52.260;4.728;2022-12-18T09:05:38;10.33;;;5.07;;
7487;SDS011;3785;52.260;4.728;2022-12-18T09:08:58;15.10;;;7.03;;
7487;SDS011;3785;52.260;4.728;2022-12-18T09:12:19;11.57;;;5.67;;
7487;SDS011;3785;52.260;4.728;2022-12-18T09:15:50;11.83;;;6.20;;
7487;SDS011;3785;52.260;4.728;2022-12-18T09:19:11;12.90;;;6.30;;
7487;SDS011;3785;52.260;4.728;2022-12-18T09:22:32;9.70;;;5.70;;
7487;SDS011;3785;52.260;4.728;2022-12-18T09:25:58;12.50;;;6.47;;
7487;SDS011;3785;52.260;4.728;2022-12-18T09:29:19;11.57;;;6.57;;
7487;SDS011;3785;52.260;4.728;2022-12-18T09:32:40;8.37;;;5.43;;
7487;SDS011;3785;52.260;4.728;2022-12-18T09:36:01;14.43;;;6.53;;
7487;SDS011;3785;52.260;4.728;2022-12-18T09:39:23;14.37;;;7.70;;
7487;SDS011;3785;52.260;4.728;2022-12-18T09:42:44;13.87;;;6.90;;
7487;SDS011;3785;52.260;4.728;2022-12-18T09:46:09;11.47;;;6.60;;
7487;SDS011;3785;52.260;4.728;2022-12-18T09:49:33;14.60;;;7.40;;
7487;SDS011;3785;52.260;4.728;2022-12-18T09:52:56;12.33;;;7.40;;
7487;SDS011;3785;52.260;4.728;2022-12-18T09:56:19;12.03;;;6.90;;
7487;SDS011;3785;52.260;4.728;2022-12-18T09:59:43;14.93;;;7.63;;
7487;SDS011;3785;52.260;4.728;2022-12-18T10:03:12;14.73;;;7.50;;
7487;SDS011;3785;52.260;4.728;2022-12-18T10:06:54;9.80;;;5.27;;
7487;SDS011;3785;52.260;4.728;2022-12-18T10:21:00;13.50;;;6.87;;
7487;SDS011;3785;52.260;4.728;2022-12-18T10:28:44;15.37;;;8.77;;
7487;SDS011;3785;52.260;4.728;2022-12-18T10:32:05;15.43;;;8.17;;
7487;SDS011;3785;52.260;4.728;2022-12-18T10:35:26;9.97;;;5.70;;
7487;SDS011;3785;52.260;4.728;2022-12-18T10:38:47;14.30;;;7.57;;
7487;SDS011;3785;52.260;4.728;2022-12-18T10:42:19;15.13;;;8.77;;
7487;SDS011;3785;52.260;4.728;2022-12-18T10:45:40;16.30;;;8.27;;
7487;SDS011;3785;52.260;4.728;2022-12-18T10:49:01;11.77;;;6.33;;
7487;SDS011;3785;52.260;4.728;2022-12-18T10:52:22;17.63;;;8.47;;
7487;SDS011;3785;52.260;4.728;2022-12-18T10:55:44;15.90;;;8.00;;
7487;SDS011;3785;52.260;4.728;2022-12-18T10:59:07;13.57;;;7.17;;
7487;SDS011;3785;52.260;4.728;2022-12-18T11:02:36;12.20;;;7.47;;
7487;SDS011;3785;52.260;4.728;2022-12-18T11:06:04;17.93;;;8.23;;
7487;SDS011;3785;52.260;4.728;2022-12-18T11:09:28;17.77;;;8.47;;
7487;SDS011;3785;52.260;4.728;2022-12-18T11:12:49;14.03;;;8.90;;
7487;SDS011;3785;52.260;4.728;2022-12-18T11:16:17;13.33;;;8.17;;
7487;SDS011;3785;52.260;4.728;2022-12-18T11:19:39;11.53;;;7.00;;
7487;SDS011;3785;52.260;4.728;2022-12-18T11:26:21;14.03;;;7.47;;
7487;SDS011;3785;52.260;4.728;2022-12-18T11:30:06;14.87;;;8.80;;
7487;SDS011;3785;52.260;4.728;2022-12-18T11:33:52;12.57;;;6.73;;
7487;SDS011;3785;52.260;4.728;2022-12-18T11:37:31;15.93;;;8.17;;
7487;SDS011;3785;52.260;4.728;2022-12-18T11:44:50;14.90;;;8.73;;
7487;SDS011;3785;52.260;4.728;2022-12-18T11:48:28;14.53;;;8.33;;
7487;SDS011;3785;52.260;4.728;2022-12-18T11:51:59;12.60;;;6.70;;
7487;SDS011;3785;52.260;4.728;2022-12-18T11:55:44;13.67;;;7.67;;
7487;SDS011;3785;52.260;4.728;2022-12-18T12:06:56;15.07;;;8.23;;
7487;SDS011;3785;52.260;4.728;2022-12-18T12:14:06;14.20;;;8.20;;
7487;SDS011;3785;52.260;4.728;2022-12-18T12:17:36;14.33;;;6.93;;
7487;SDS011;3785;52.260;4.728;2022-12-18T12:21:20;17.17;;;7.60;;
7487;SDS011;3785;52.260;4.728;2022-12-18T12:28:34;17.33;;;8.30;;
7487;SDS011;3785;52.260;4.728;2022-12-18T12:39:08;12.90;;;8.43;;
7487;SDS011;3785;52.260;4.728;2022-12-18T12:42:35;15.07;;;8.30;;
7487;SDS011;3785;52.260;4.728;2022-12-18T12:46:19;12.70;;;7.13;;
7487;SDS011;3785;52.260;4.728;2022-12-18T12:49:44;15.63;;;9.40;;
7487;SDS011;3785;52.260;4.728;2022-12-18T12:53:07;13.13;;;7.77;;
7487;SDS011;3785;52.260;4.728;2022-12-18T12:56:37;14.27;;;8.20;;
7487;SDS011;3785;52.260;4.728;2022-12-18T13:00:10;18.33;;;9.17;;
7487;SDS011;3785;52.260;4.728;2022-12-18T13:03:41;17.63;;;8.17;;
7487;SDS011;3785;52.260;4.728;2022-12-18T13:07:20;14.30;;;8.17;;
7487;SDS011;3785;52.260;4.728;2022-12-18T13:10:47;16.27;;;8.43;;
7487;SDS011;3785;52.260;4.728;2022-12-18T13:14:10;10.67;;;6.20;;
7487;SDS011;3785;52.260;4.728;2022-12-18T13:17:47;17.70;;;9.07;;
7487;SDS011;3785;52.260;4.728;2022-12-18T13:21:14;16.40;;;9.03;;
7487;SDS011;3785;52.260;4.728;2022-12-18T13:24:56;13.33;;;7.70;;
7487;SDS011;3785;52.260;4.728;2022-12-18T13:28:18;17.33;;;8.57;;
7487;SDS011;3785;52.260;4.728;2022-12-18T13:38:40;14.50;;;7.20;;
7487;SDS011;3785;52.260;4.728;2022-12-18T13:45:35;16.23;;;8.43;;
7487;SDS011;3785;52.260;4.728;2022-12-18T13:49:03;12.47;;;8.77;;
7487;SDS011;3785;52.260;4.728;2022-12-18T13:52:33;16.20;;;7.27;;
7487;SDS011;3785;52.260;4.728;2022-12-18T13:55:56;15.27;;;9.00;;
7487;SDS011;3785;52.260;4.728;2022-12-18T14:02:37;15.53;;;8.83;;
7487;SDS011;3785;52.260;4.728;2022-12-18T14:06:02;13.77;;;8.27;;
7487;SDS011;3785;52.260;4.728;2022-12-18T14:09:27;14.57;;;7.77;;
7487;SDS011;3785;52.260;4.728;2022-12-18T14:12:50;12.00;;;8.27;;
7487;SDS011;3785;52.260;4.728;2022-12-18T14:16:17;17.57;;;8.43;;
7487;SDS011;3785;52.260;4.728;2022-12-18T14:19:40;13.53;;;7.73;;
7487;SDS011;3785;52.260;4.728;2022-12-18T14:23:02;13.47;;;7.50;;
7487;SDS011;3785;52.260;4.728;2022-12-18T14:29:44;13.60;;;7.93;;
7487;SDS011;3785;52.260;4.728;2022-12-18T14:36:28;13.40;;;7.53;;
7487;SDS011;3785;52.260;4.728;2022-12-18T14:39:56;12.93;;;6.83;;
7487;SDS011;3785;52.260;4.728;2022-12-18T14:43:17;14.67;;;7.33;;
7487;SDS011;3785;52.260;4.728;2022-12-18T14:46:39;15.10;;;7.63;;
7487;SDS011;3785;52.260;4.728;2022-12-18T14:50:04;16.20;;;9.10;;
7487;SDS011;3785;52.260;4.728;2022-12-18T14:53:34;15.17;;;8.03;;
7487;SDS011;3785;52.260;4.728;2022-12-18T14:57:05;17.17;;;8.77;;
7487;SDS011;3785;52.260;4.728;2022-12-18T15:00:33;16.50;;;8.70;;
7487;SDS011;3785;52.260;4.728;2022-12-18T15:03:54;16.43;;;8.47;;
7487;SDS011;3785;52.260;4.728;2022-12-18T15:07:19;12.87;;;7.73;;
7487;SDS011;3785;52.260;4.728;2022-12-18T15:10:46;14.87;;;8.13;;
7487;SDS011;3785;52.260;4.728;2022-12-18T15:14:24;15.60;;;8.07;;
7487;SDS011;3785;52.260;4.728;2022-12-18T15:21:30;15.33;;;7.53;;
7487;SDS011;3785;52.260;4.728;2022-12-18T15:24:51;12.87;;;7.23;;
7487;SDS011;3785;52.260;4.728;2022-12-18T15:28:15;17.43;;;9.20;;
7487;SDS011;3785;52.260;4.728;2022-12-18T15:31:40;17.17;;;8.67;;
7487;SDS011;3785;52.260;4.728;2022-12-18T15:35:11;15.90;;;7.47;;
7487;SDS011;3785;52.260;4.728;2022-12-18T15:38:35;17.23;;;8.80;;
7487;SDS011;3785;52.260;4.728;2022-12-18T15:41:56;20.00;;;9.47;;
7487;SDS011;3785;52.260;4.728;2022-12-18T15:45:35;15.93;;;8.90;;
7487;SDS011;3785;52.260;4.728;2022-12-18T15:48:56;14.63;;;8.77;;
7487;SDS011;3785;52.260;4.728;2022-12-18T15:52:17;14.00;;;7.60;;
7487;SDS011;3785;52.260;4.728;2022-12-18T15:55:45;15.40;;;8.53;;
7487;SDS011;3785;52.260;4.728;2022-12-18T15:59:24;14.13;;;8.27;;
7487;SDS011;3785;52.260;4.728;2022-12-18T16:02:45;16.50;;;8.90;;
7487;SDS011;3785;52.260;4.728;2022-12-18T16:06:06;16.97;;;8.60;;
7487;SDS011;3785;52.260;4.728;2022-12-18T16:09:26;17.27;;;8.80;;
7487;SDS011;3785;52.260;4.728;2022-12-18T16:12:47;17.67;;;8.90;;
7487;SDS011;3785;52.260;4.728;2022-12-18T16:16:08;21.47;;;9.97;;
7487;SDS011;3785;52.260;4.728;2022-12-18T16:19:28;19.23;;;9.27;;
7487;SDS011;3785;52.260;4.728;2022-12-18T16:22:49;14.17;;;8.50;;
7487;SDS011;3785;52.260;4.728;2022-12-18T16:26:10;17.10;;;8.20;;
7487;SDS011;3785;52.260;4.728;2022-12-18T16:29:31;16.97;;;10.93;;
7487;SDS011;3785;52.260;4.728;2022-12-18T16:32:51;16.17;;;8.73;;
7487;SDS011;3785;52.260;4.728;2022-12-18T16:36:12;16.00;;;9.17;;
7487;SDS011;3785;52.260;4.728;2022-12-18T16:39:32;17.70;;;10.70;;
7487;SDS011;3785;52.260;4.728;2022-12-18T16:42:54;18.73;;;9.50;;
7487;SDS011;3785;52.260;4.728;2022-12-18T16:46:14;16.50;;;8.57;;
7487;SDS011;3785;52.260;4.728;2022-12-18T16:49:35;22.60;;;9.50;;
7487;SDS011;3785;52.260;4.728;2022-12-18T16:52:55;18.87;;;9.40;;
7487;SDS011;3785;52.260;4.728;2022-12-18T16:56:16;14.67;;;8.53;;
7487;SDS011;3785;52.260;4.728;2022-12-18T16:59:36;17.93;;;9.20;;
7487;SDS011;3785;52.260;4.728;2022-12-18T17:02:57;15.20;;;7.77;;
7487;SDS011;3785;52.260;4.728;2022-12-18T17:06:18;22.97;;;10.93;;
7487;SDS011;3785;52.260;4.728;2022-12-18T17:09:38;21.80;;;10.07;;
7487;SDS011;3785;52.260;4.728;2022-12-18T17:12:59;18.00;;;9.13;;
7487;SDS011;3785;52.260;4.728;2022-12-18T17:16:20;20.67;;;11.03;;
7487;SDS011;3785;52.260;4.728;2022-12-18T17:19:41;20.47;;;10.07;;
7487;SDS011;3785;52.260;4.728;2022-12-18T17:23:01;17.40;;;9.63;;
7487;SDS011;3785;52.260;4.728;2022-12-18T17:26:22;20.23;;;9.63;;
7487;SDS011;3785;52.260;4.728;2022-12-18T17:29:43;20.47;;;8.97;;
7487;SDS011;3785;52.260;4.728;2022-12-18T17:33:03;19.73;;;10.17;;
7487;SDS011;3785;52.260;4.728;2022-12-18T17:36:24;15.83;;;8.20;;
7487;SDS011;3785;52.260;4.728;2022-12-18T17:39:47;16.47;;;8.90;;
7487;SDS011;3785;52.260;4.728;2022-12-18T17:43:08;18.43;;;8.67;;
7487;SDS011;3785;52.260;4.728;2022-12-18T17:46:31;15.90;;;9.10;;
7487;SDS011;3785;52.260;4.728;2022-12-18T17:49:52;14.93;;;8.20;;
7487;SDS011;3785;52.260;4.728;2022-12-18T17:53:13;19.90;;;9.57;;
7487;SDS011;3785;52.260;4.728;2022-12-18T17:56:33;16.07;;;8.07;;
7487;SDS011;3785;52.260;4.728;2022-12-18T17:59:54;21.13;;;8.83;;
7487;SDS011;3785;52.260;4.728;2022-12-18T18:03:14;18.53;;;9.47;;
7487;SDS011;3785;52.260;4.728;2022-12-18T18:06:35;16.07;;;8.73;;
7487;SDS011;3785;52.260;4.728;2022-12-18T18:09:56;19.37;;;9.70;;
7487;SDS011;3785;52.260;4.728;2022-12-18T18:13:17;17.57;;;9.83;;
7487;SDS011;3785;52.260;4.728;2022-12-18T18:16:57;20.07;;;10.07;;
7487;SDS011;3785;52.260;4.728;2022-12-18T18:20:18;20.00;;;9.43;;
7487;SDS011;3785;52.260;4.728;2022-12-18T18:23:38;19.37;;;9.83;;
7487;SDS011;3785;52.260;4.728;2022-12-18T18:26:59;17.70;;;10.03;;
7487;SDS011;3785;52.260;4.728;2022-12-18T18:30:19;19.77;;;9.30;;
7487;SDS011;3785;52.260;4.728;2022-12-18T18:33:40;15.10;;;8.70;;
7487;SDS011;3785;52.260;4.728;2022-12-18T18:37:01;16.37;;;8.70;;
7487;SDS011;3785;52.260;4.728;2022-12-18T18:40:22;18.23;;;9.13;;
7487;SDS011;3785;52.260;4.728;2022-12-18T18:43:42;22.20;;;9.33;;
7487;SDS011;3785;52.260;4.728;2022-12-18T18:47:03;18.83;;;9.20;;
7487;SDS011;3785;52.260;4.728;2022-12-18T18:50:24;16.77;;;8.90;;
7487;SDS011;3785;52.260;4.728;2022-12-18T18:53:46;20.23;;;9.93;;
7487;SDS011;3785;52.260;4.728;2022-12-18T18:57:07;14.50;;;8.43;;
7487;SDS011;3785;52.260;4.728;2022-12-18T19:00:29;17.80;;;8.93;;
7487;SDS011;3785;52.260;4.728;2022-12-18T19:03:50;17.60;;;9.07;;
7487;SDS011;3785;52.260;4.728;2022-12-18T19:07:11;18.83;;;8.47;;
7487;SDS011;3785;52.260;4.728;2022-12-18T19:10:32;16.13;;;8.43;;
7487;SDS011;3785;52.260;4.728;2022-12-18T19:13:53;16.77;;;8.27;;
7487;SDS011;3785;52.260;4.728;2022-12-18T19:17:14;20.03;;;9.47;;
7487;SDS011;3785;52.260;4.728;2022-12-18T19:20:35;16.67;;;9.73;;
7487;SDS011;3785;52.260;4.728;2022-12-18T19:23:55;17.13;;;9.13;;
7487;SDS011;3785;52.260;4.728;2022-12-18T19:27:16;16.83;;;8.83;;
7487;SDS011;3785;52.260;4.728;2022-12-18T19:30:37;15.67;;;8.67;;
7487;SDS011;3785;52.260;4.728;2022-12-18T19:33:58;20.33;;;10.23;;
7487;SDS011;3785;52.260;4.728;2022-12-18T19:37:19;17.87;;;9.27;;
7487;SDS011;3785;52.260;4.728;2022-12-18T19:40:40;15.30;;;8.33;;
7487;SDS011;3785;52.260;4.728;2022-12-18T19:44:01;17.17;;;8.80;;
7487;SDS011;3785;52.260;4.728;2022-12-18T19:47:21;18.30;;;8.40;;
7487;SDS011;3785;52.260;4.728;2022-12-18T19:50:42;16.47;;;9.23;;
7487;SDS011;3785;52.260;4.728;2022-12-18T19:54:03;16.97;;;8.93;;
7487;SDS011;3785;52.260;4.728;2022-12-18T19:57:24;23.77;;;10.67;;
7487;SDS011;3785;52.260;4.728;2022-12-18T20:00:44;20.83;;;9.67;;
7487;SDS011;3785;52.260;4.728;2022-12-18T20:04:05;18.07;;;9.23;;
7487;SDS011;3785;52.260;4.728;2022-12-18T20:07:25;17.20;;;9.00;;
7487;SDS011;3785;52.260;4.728;2022-12-18T20:10:46;18.00;;;8.77;;
7487;SDS011;3785;52.260;4.728;2022-12-18T20:14:10;18.50;;;10.03;;
7487;SDS011;3785;52.260;4.728;2022-12-18T20:17:31;21.47;;;9.30;;
7487;SDS011;3785;52.260;4.728;2022-12-18T20:20:52;15.70;;;8.67;;
7487;SDS011;3785;52.260;4.728;2022-12-18T20:24:12;14.90;;;8.00;;
7487;SDS011;3785;52.260;4.728;2022-12-18T20:27:33;17.30;;;6.90;;
7487;SDS011;3785;52.260;4.728;2022-12-18T20:30:57;17.80;;;9.20;;
7487;SDS011;3785;52.260;4.728;2022-12-18T20:34:22;17.67;;;9.23;;
7487;SDS011;3785;52.260;4.728;2022-12-18T20:37:46;15.03;;;7.37;;
7487;SDS011;3785;52.260;4.728;2022-12-18T20:41:10;14.53;;;7.63;;
7487;SDS011;3785;52.260;4.728;2022-12-18T20:44:34;15.53;;;7.67;;
7487;SDS011;3785;52.260;4.728;2022-12-18T20:47:54;16.70;;;9.00;;
7487;SDS011;3785;52.260;4.728;2022-12-18T20:51:17;15.07;;;8.77;;
7487;SDS011;3785;52.260;4.728;2022-12-18T20:54:38;17.17;;;8.53;;
7487;SDS011;3785;52.260;4.728;2022-12-18T20:57:59;19.73;;;10.80;;
7487;SDS011;3785;52.260;4.728;2022-12-18T21:01:19;20.27;;;9.90;;
7487;SDS011;3785;52.260;4.728;2022-12-18T21:04:40;24.43;;;9.87;;
7487;SDS011;3785;52.260;4.728;2022-12-18T21:08:01;21.50;;;9.70;;
7487;SDS011;3785;52.260;4.728;2022-12-18T21:15:06;20.73;;;9.57;;
7487;SDS011;3785;52.260;4.728;2022-12-18T21:18:29;19.97;;;10.40;;
7487;SDS011;3785;52.260;4.728;2022-12-18T21:21:49;23.33;;;11.40;;
7487;SDS011;3785;52.260;4.728;2022-12-18T21:25:11;19.70;;;8.90;;
7487;SDS011;3785;52.260;4.728;2022-12-18T21:28:31;18.40;;;8.70;;
7487;SDS011;3785;52.260;4.728;2022-12-18T21:31:52;17.83;;;7.67;;
7487;SDS011;3785;52.260;4.728;2022-12-18T21:35:13;16.70;;;9.17;;
7487;SDS011;3785;52.260;4.728;2022-12-18T21:38:34;20.23;;;8.87;;
7487;SDS011;3785;52.260;4.728;2022-12-18T21:41:55;19.80;;;9.60;;
7487;SDS011;3785;52.260;4.728;2022-12-18T21:45:35;15.83;;;8.57;;
7487;SDS011;3785;52.260;4.728;2022-12-18T21:48:55;16.33;;;8.20;;
7487;SDS011;3785;52.260;4.728;2022-12-18T21:52:16;16.60;;;9.13;;
7487;SDS011;3785;52.260;4.728;2022-12-18T21:55:36;17.53;;;8.33;;
7487;SDS011;3785;52.260;4.728;2022-12-18T21:58:57;23.63;;;9.53;;
7487;SDS011;3785;52.260;4.728;2022-12-18T22:02:18;17.07;;;8.03;;
7487;SDS011;3785;52.260;4.728;2022-12-18T22:05:40;20.57;;;8.97;;
7487;SDS011;3785;52.260;4.728;2022-12-18T22:09:00;18.43;;;8.43;;
7487;SDS011;3785;52.260;4.728;2022-12-18T22:12:21;19.03;;;9.17;;
7487;SDS011;3785;52.260;4.728;2022-12-18T22:15:54;19.73;;;8.50;;
7487;SDS011;3785;52.260;4.728;2022-12-18T22:19:14;15.87;;;9.30;;